Time;durP1;ratioP1;P1;durP2;ratioP2;P2;SDS_P1;SDS_P2;PMS_P1;PMS_P2;Temp;Humidity;BMP_temperature;BMP_pressure;BME280_temperature;BME280_humidity;BME280_pressure;Samples;Min_cycle;Max_cycle;Signal;HPM_P1;HPM_P2
2021/06/19 00:00:17;;;;;;;20.40;18.90;;;;;;;;;;5073367;28;20499;-59
2021/06/19 00:02:44;;;;;;;22.43;20.27;;;;;;;;;;5073238;28;20538;-58
2021/06/19 00:05:12;;;;;;;20.17;18.57;;;;;;;;;;5074506;28;20455;-59
2021/06/19 00:07:40;;;;;;;21.77;19.97;;;;;;;;;;5073212;28;20871;-59
2021/06/19 00:10:09;;;;;;;22.03;20.07;;;;;;;;;;5073199;28;20499;-59
2021/06/19 00:12:37;;;;;;;19.83;18.20;;;;;;;;;;5072643;28;20478;-59
2021/06/19 00:15:05;;;;;;;21.43;19.67;;;;;;;;;;5073083;28;20457;-59
2021/06/19 00:17:32;;;;;;;21.37;19.47;;;;;;;;;;5073064;28;20491;-58
2021/06/19 00:20:00;;;;;;;22.93;21.07;;;;;;;;;;5072757;28;20495;-59
2021/06/19 00:22:27;;;;;;;21.07;19.37;;;;;;;;;;5072674;28;20460;-58
2021/06/19 00:24:54;;;;;;;20.60;18.80;;;;;;;;;;5076780;28;20511;-59
2021/06/19 00:27:23;;;;;;;20.30;18.27;;;;;;;;;;5077038;28;20444;-60
2021/06/19 00:29:50;;;;;;;20.30;18.40;;;;;;;;;;5077012;28;20453;-59
2021/06/19 00:32:17;;;;;;;20.80;19.10;;;;;;;;;;5077225;28;20465;-59
2021/06/19 00:34:44;;;;;;;20.30;18.60;;;;;;;;;;5076943;28;20518;-59
2021/06/19 00:37:12;;;;;;;20.80;19.17;;;;;;;;;;5076543;28;20866;-59
2021/06/19 00:39:40;;;;;;;20.50;18.70;;;;;;;;;;5076538;28;20450;-59
2021/06/19 00:42:07;;;;;;;21.43;19.73;;;;;;;;;;5076637;28;20447;-59
2021/06/19 00:44:36;;;;;;;20.33;18.73;;;;;;;;;;5077487;28;20445;-59
2021/06/19 00:47:03;;;;;;;19.57;18.07;;;;;;;;;;5076488;28;20871;-59
2021/06/19 00:49:30;;;;;;;21.80;19.70;;;;;;;;;;5076943;28;20447;-59
2021/06/19 00:51:57;;;;;;;22.37;20.47;;;;;;;;;;5076849;28;20447;-59
2021/06/19 00:54:25;;;;;;;21.50;19.80;;;;;;;;;;5076644;28;20538;-59
2021/06/19 00:56:52;;;;;;;19.93;18.20;;;;;;;;;;5076436;28;20940;-59
2021/06/19 00:59:19;;;;;;;22.40;20.60;;;;;;;;;;5076877;28;20443;-59
2021/06/19 01:01:48;;;;;;;21.33;19.63;;;;;;;;;;5076770;28;20445;-59
2021/06/19 01:04:15;;;;;;;21.20;19.50;;;;;;;;;;5076460;28;20463;-59
2021/06/19 01:06:43;;;;;;;21.93;19.93;;;;;;;;;;5076718;28;20504;-59
2021/06/19 01:09:11;;;;;;;21.40;19.60;;;;;;;;;;5076823;28;20443;-59
2021/06/19 01:11:39;;;;;;;20.80;19.00;;;;;;;;;;5076256;28;20450;-59
2021/06/19 01:14:06;;;;;;;21.80;19.90;;;;;;;;;;5075705;28;20528;-56
2021/06/19 01:16:34;;;;;;;20.90;19.30;;;;;;;;;;5076222;28;20447;-57
2021/06/19 01:19:03;;;;;;;21.57;19.77;;;;;;;;;;5076097;28;20452;-58
2021/06/19 01:21:31;;;;;;;21.40;19.60;;;;;;;;;;5076091;28;20474;-58
2021/06/19 01:23:59;;;;;;;22.27;20.23;;;;;;;;;;5076063;28;20518;-59
2021/06/19 01:26:28;;;;;;;21.27;19.60;;;;;;;;;;5076026;28;20448;-59
2021/06/19 01:28:56;;;;;;;20.27;18.67;;;;;;;;;;5075952;28;20495;-59
2021/06/19 01:31:23;;;;;;;22.03;20.10;;;;;;;;;;5075676;28;20944;-59
2021/06/19 01:33:51;;;;;;;21.63;19.93;;;;;;;;;;5075417;28;20475;-59
2021/06/19 01:36:19;;;;;;;20.87;19.13;;;;;;;;;;5075120;28;20444;-59
2021/06/19 01:38:47;;;;;;;20.40;18.50;;;;;;;;;;5075557;28;20786;-59
2021/06/19 01:41:14;;;;;;;21.53;19.53;;;;;;;;;;5075540;28;20444;-59
2021/06/19 01:43:44;;;;;;;22.30;20.30;;;;;;;;;;5075202;28;20486;-59
2021/06/19 01:46:11;;;;;;;21.47;19.70;;;;;;;;;;5076376;28;20497;-59
2021/06/19 01:48:38;;;;;;;20.77;18.97;;;;;;;;;;5075628;28;20443;-59
2021/06/19 01:51:08;;;;;;;21.33;19.80;;;;;;;;;;5075551;28;20513;-58
2021/06/19 01:53:35;;;;;;;22.70;20.90;;;;;;;;;;5075409;28;20540;-59
2021/06/19 01:56:02;;;;;;;19.80;18.23;;;;;;;;;;5075284;28;20487;-59
2021/06/19 01:58:30;;;;;;;21.53;19.73;;;;;;;;;;5075448;28;20513;-58
2021/06/19 02:00:59;;;;;;;22.00;20.10;;;;;;;;;;5076299;28;20444;-59
2021/06/19 02:03:26;;;;;;;20.23;18.53;;;;;;;;;;5074977;28;20512;-59
2021/06/19 02:05:53;;;;;;;21.10;19.33;;;;;;;;;;5075348;28;20494;-59
2021/06/19 02:08:21;;;;;;;21.77;20.00;;;;;;;;;;5075182;28;20894;-59
2021/06/19 02:10:48;;;;;;;20.57;18.70;;;;;;;;;;5075081;28;20936;-59
2021/06/19 02:13:16;;;;;;;24.00;21.00;;;;;;;;;;5074896;28;21048;-59
2021/06/19 02:15:47;;;;;;;20.20;18.40;;;;;;;;;;5074994;28;20498;-59
2021/06/19 02:18:16;;;;;;;19.60;18.10;;;;;;;;;;5075987;28;20436;-59
2021/06/19 02:20:43;;;;;;;21.03;18.93;;;;;;;;;;5075290;28;20449;-59
2021/06/19 02:23:11;;;;;;;19.97;18.23;;;;;;;;;;5074980;28;20525;-59
2021/06/19 02:25:38;;;;;;;19.03;17.53;;;;;;;;;;5075001;28;20439;-59
2021/06/19 02:28:06;;;;;;;18.87;17.33;;;;;;;;;;5074765;28;20502;-59
2021/06/19 02:30:34;;;;;;;19.57;17.83;;;;;;;;;;5074705;28;20997;-59
2021/06/19 02:33:02;;;;;;;19.63;18.03;;;;;;;;;;5074645;28;20525;-59
2021/06/19 02:35:32;;;;;;;19.27;17.70;;;;;;;;;;5074747;28;20469;-59
2021/06/19 02:38:00;;;;;;;19.67;18.13;;;;;;;;;;5075045;28;20506;-59
2021/06/19 02:40:27;;;;;;;19.83;18.23;;;;;;;;;;5074712;28;20497;-59
2021/06/19 02:42:55;;;;;;;20.27;18.47;;;;;;;;;;5074143;28;20986;-59
2021/06/19 02:45:22;;;;;;;19.57;17.70;;;;;;;;;;5074693;28;20448;-59
2021/06/19 02:47:51;;;;;;;19.63;18.13;;;;;;;;;;5073251;28;20997;-59
2021/06/19 02:50:20;;;;;;;19.73;17.93;;;;;;;;;;5074977;28;20440;-59
2021/06/19 02:52:49;;;;;;;19.70;17.90;;;;;;;;;;5074124;28;20913;-59
2021/06/19 02:55:18;;;;;;;19.80;18.03;;;;;;;;;;5074265;28;20486;-59
2021/06/19 02:57:45;;;;;;;19.67;17.97;;;;;;;;;;5074296;28;20449;-59
2021/06/19 03:00:14;;;;;;;19.13;17.63;;;;;;;;;;5073987;28;20447;-59
2021/06/19 03:02:41;;;;;;;18.67;17.10;;;;;;;;;;5074278;28;20463;-59
2021/06/19 03:05:10;;;;;;;19.53;18.00;;;;;;;;;;5074121;28;20451;-59
2021/06/19 03:07:37;;;;;;;19.83;18.23;;;;;;;;;;5074221;28;20443;-59
2021/06/19 03:10:06;;;;;;;18.87;17.27;;;;;;;;;;5074384;28;20509;-59
2021/06/19 03:12:33;;;;;;;17.37;16.07;;;;;;;;;;5074396;28;20543;-59
2021/06/19 03:15:01;;;;;;;19.00;17.30;;;;;;;;;;5073840;28;20474;-59
2021/06/19 03:17:28;;;;;;;18.27;16.23;;;;;;;;;;5074353;28;20446;-59
2021/06/19 03:19:55;;;;;;;22.00;18.10;;;;;;;;;;5074240;28;20875;-59
2021/06/19 03:22:22;;;;;;;19.23;16.43;;;;;;;;;;5073656;28;20456;-60
2021/06/19 03:24:50;;;;;;;19.27;17.37;;;;;;;;;;5073727;28;20927;-58
2021/06/19 03:27:19;;;;;;;19.83;17.87;;;;;;;;;;5073919;28;20442;-59
2021/06/19 03:29:47;;;;;;;19.40;17.20;;;;;;;;;;5073667;28;20447;-59
2021/06/19 03:32:14;;;;;;;17.97;16.10;;;;;;;;;;5073598;28;20513;-59
2021/06/19 03:34:42;;;;;;;18.83;16.83;;;;;;;;;;5073700;28;20492;-59
2021/06/19 03:37:09;;;;;;;18.63;16.73;;;;;;;;;;5073717;28;20539;-59
2021/06/19 03:39:36;;;;;;;18.47;16.80;;;;;;;;;;5073441;28;20480;-59
2021/06/19 03:42:04;;;;;;;17.10;15.30;;;;;;;;;;5073800;28;20442;-61
2021/06/19 03:44:33;;;;;;;17.03;15.43;;;;;;;;;;5073856;28;20527;-60
2021/06/19 03:47:00;;;;;;;17.90;16.30;;;;;;;;;;5073896;28;20503;-60
2021/06/19 03:49:27;;;;;;;20.50;18.57;;;;;;;;;;5073946;28;20454;-60
2021/06/19 03:51:55;;;;;;;22.30;20.17;;;;;;;;;;5073486;28;21015;-60
2021/06/19 03:54:22;;;;;;;21.00;18.90;;;;;;;;;;5073235;28;20492;-60
2021/06/19 03:56:49;;;;;;;19.23;16.93;;;;;;;;;;5073407;28;20442;-60
2021/06/19 03:59:16;;;;;;;25.70;17.07;;;;;;;;;;5073082;28;20489;-60
2021/06/19 04:01:45;;;;;;;19.07;17.10;;;;;;;;;;5072957;28;20932;-59
2021/06/19 04:04:12;;;;;;;17.67;16.13;;;;;;;;;;5073023;28;20971;-60
2021/06/19 04:08:15;;;;;;;18.03;16.23;;;;;;;;;;5173965;27;20579;-59
2021/06/19 04:10:42;;;;;;;17.30;15.60;;;;;;;;;;5152082;27;20436;-59
2021/06/19 04:13:10;;;;;;;18.80;16.97;;;;;;;;;;5143455;27;20461;-60
2021/06/19 04:15:37;;;;;;;20.67;18.77;;;;;;;;;;5132476;28;20448;-59
2021/06/19 04:18:05;;;;;;;18.10;16.30;;;;;;;;;;5131607;28;20481;-59
2021/06/19 04:20:32;;;;;;;18.87;16.80;;;;;;;;;;5131496;28;20442;-58
2021/06/19 04:22:59;;;;;;;18.40;16.50;;;;;;;;;;5131328;27;20552;-58
2021/06/19 04:25:28;;;;;;;19.33;17.53;;;;;;;;;;5131103;28;20441;-59
2021/06/19 04:27:56;;;;;;;19.73;16.53;;;;;;;;;;5131261;28;20899;-58
2021/06/19 04:30:25;;;;;;;18.60;16.70;;;;;;;;;;5131325;28;20498;-58
2021/06/19 04:32:53;;;;;;;19.87;17.87;;;;;;;;;;5131231;27;20547;-59
2021/06/19 04:35:21;;;;;;;17.60;15.90;;;;;;;;;;5131760;28;20468;-58
2021/06/19 04:37:49;;;;;;;16.90;15.13;;;;;;;;;;5131191;28;20443;-58
2021/06/19 04:40:20;;;;;;;17.50;15.70;;;;;;;;;;5130795;28;20446;-60
2021/06/19 04:42:56;;;;;;;15.57;14.07;;;;;;;;;;5132175;27;20814;-59
2021/06/19 04:45:23;;;;;;;15.87;14.37;;;;;;;;;;5130827;28;20432;-60
2021/06/19 04:47:50;;;;;;;14.10;12.00;;;;;;;;;;5130858;28;20479;-60
2021/06/19 04:50:18;;;;;;;15.13;13.40;;;;;;;;;;5130976;28;20448;-59
2021/06/19 04:52:46;;;;;;;12.67;11.57;;;;;;;;;;5130794;27;20468;-60
2021/06/19 04:55:15;;;;;;;14.37;13.03;;;;;;;;;;5130904;28;20448;-60
2021/06/19 04:57:43;;;;;;;11.70;10.00;;;;;;;;;;5130443;28;20441;-59
2021/06/19 05:00:12;;;;;;;12.33;11.23;;;;;;;;;;5130472;28;20933;-60
2021/06/19 05:02:40;;;;;;;11.37;9.87;;;;;;;;;;5130602;27;20457;-60
2021/06/19 05:05:08;;;;;;;14.33;10.60;;;;;;;;;;5130605;28;20508;-59
2021/06/19 05:07:35;;;;;;;11.40;10.37;;;;;;;;;;5130284;28;20479;-60
2021/06/19 05:10:05;;;;;;;12.87;9.30;;;;;;;;;;5130554;28;20545;-60
2021/06/19 05:12:32;;;;;;;12.07;8.77;;;;;;;;;;5130194;27;20839;-60
2021/06/19 05:15:00;;;;;;;10.63;8.40;;;;;;;;;;5130074;28;20447;-60
2021/06/19 05:17:28;;;;;;;10.93;7.97;;;;;;;;;;5128785;28;21012;-59
2021/06/19 05:19:56;;;;;;;13.37;8.27;;;;;;;;;;5116071;28;20444;-60
2021/06/19 05:22:23;;;;;;;9.00;8.10;;;;;;;;;;5116631;28;20523;-60
2021/06/19 05:24:50;;;;;;;8.40;7.60;;;;;;;;;;5116416;28;20451;-60
2021/06/19 05:27:18;;;;;;;9.80;7.50;;;;;;;;;;5116449;28;20544;-60
2021/06/19 05:29:45;;;;;;;12.93;7.47;;;;;;;;;;5116250;28;20443;-60
2021/06/19 05:32:12;;;;;;;8.47;6.57;;;;;;;;;;5116582;28;20439;-61
2021/06/19 05:34:42;;;;;;;7.97;7.17;;;;;;;;;;5116711;28;20864;-60
2021/06/19 05:37:09;;;;;;;9.00;7.47;;;;;;;;;;5116423;28;20528;-60
2021/06/19 05:39:36;;;;;;;6.83;6.20;;;;;;;;;;5116259;28;20525;-60
2021/06/19 05:42:04;;;;;;;11.03;6.50;;;;;;;;;;5116321;28;20442;-60
2021/06/19 05:44:31;;;;;;;7.60;6.80;;;;;;;;;;5116322;28;20446;-60
2021/06/19 05:46:58;;;;;;;7.27;6.50;;;;;;;;;;5116935;28;20484;-60
2021/06/19 05:49:26;;;;;;;9.70;6.47;;;;;;;;;;5116386;28;20444;-60
2021/06/19 05:51:54;;;;;;;6.87;5.80;;;;;;;;;;5116252;28;20446;-60
2021/06/19 05:54:22;;;;;;;7.60;5.57;;;;;;;;;;5115842;28;20522;-60
2021/06/19 05:56:49;;;;;;;7.23;5.47;;;;;;;;;;5115641;28;21000;-59
2021/06/19 05:59:16;;;;;;;7.13;4.77;;;;;;;;;;5115809;28;20440;-59
2021/06/19 06:01:43;;;;;;;6.80;4.53;;;;;;;;;;5115950;28;20854;-59
2021/06/19 06:04:10;;;;;;;5.90;4.57;;;;;;;;;;5115843;28;20463;-60
2021/06/19 06:06:38;;;;;;;4.50;4.10;;;;;;;;;;5115566;28;20458;-59
2021/06/19 06:09:08;;;;;;;6.20;5.07;;;;;;;;;;5115979;28;20852;-60
2021/06/19 06:11:35;;;;;;;5.20;4.70;;;;;;;;;;5115792;28;21009;-60
2021/06/19 06:14:02;;;;;;;5.10;4.70;;;;;;;;;;5115818;28;20525;-60
2021/06/19 06:16:29;;;;;;;6.37;4.43;;;;;;;;;;5115750;28;20443;-60
2021/06/19 06:18:56;;;;;;;4.90;4.20;;;;;;;;;;5115823;28;20454;-59
2021/06/19 06:21:24;;;;;;;7.40;4.20;;;;;;;;;;5115848;28;20439;-60
2021/06/19 06:23:51;;;;;;;6.97;4.77;;;;;;;;;;5115742;28;20881;-60
2021/06/19 06:26:20;;;;;;;4.87;3.93;;;;;;;;;;5115974;28;20492;-61
2021/06/19 06:28:47;;;;;;;4.33;3.93;;;;;;;;;;5115748;28;20476;-59
2021/06/19 06:31:14;;;;;;;7.10;4.17;;;;;;;;;;5115105;28;20477;-60
2021/06/19 06:33:41;;;;;;;6.10;4.50;;;;;;;;;;5115747;28;20516;-60
2021/06/19 06:36:09;;;;;;;5.10;3.60;;;;;;;;;;5115651;28;20476;-60
2021/06/19 06:38:36;;;;;;;4.73;3.47;;;;;;;;;;5115828;28;20459;-59
2021/06/19 06:41:03;;;;;;;5.13;4.33;;;;;;;;;;5114996;28;20877;-59
2021/06/19 06:43:32;;;;;;;4.87;4.33;;;;;;;;;;5115301;28;20522;-59
2021/06/19 06:45:59;;;;;;;5.23;4.30;;;;;;;;;;5114942;28;20498;-59
2021/06/19 06:48:28;;;;;;;5.00;4.60;;;;;;;;;;5114798;28;20484;-59
2021/06/19 06:50:56;;;;;;;6.43;4.50;;;;;;;;;;5114559;28;20928;-59
2021/06/19 06:53:23;;;;;;;5.03;4.57;;;;;;;;;;5115074;28;20519;-58
2021/06/19 06:55:50;;;;;;;6.67;4.50;;;;;;;;;;5114519;28;20800;-58
2021/06/19 06:58:17;;;;;;;8.10;5.17;;;;;;;;;;5114477;28;20437;-59
2021/06/19 07:00:46;;;;;;;9.60;4.97;;;;;;;;;;5114745;28;20493;-59
2021/06/19 07:03:13;;;;;;;4.97;4.33;;;;;;;;;;5114874;28;20517;-58
2021/06/19 07:05:40;;;;;;;6.17;4.77;;;;;;;;;;5114259;28;20855;-58
2021/06/19 07:08:08;;;;;;;5.40;4.57;;;;;;;;;;5114225;28;20536;-58
2021/06/19 07:10:35;;;;;;;6.63;4.80;;;;;;;;;;5114883;28;20493;-58
2021/06/19 07:13:02;;;;;;;4.90;4.50;;;;;;;;;;5115378;28;20991;-57
2021/06/19 07:15:29;;;;;;;4.87;4.47;;;;;;;;;;5115434;28;20502;-58
2021/06/19 07:17:58;;;;;;;6.00;4.50;;;;;;;;;;5114852;28;20449;-60
2021/06/19 07:20:25;;;;;;;7.10;5.00;;;;;;;;;;5114505;28;20506;-58
2021/06/19 07:22:52;;;;;;;5.23;4.60;;;;;;;;;;5114871;28;20541;-59
2021/06/19 07:25:20;;;;;;;6.40;4.20;;;;;;;;;;5114055;28;20512;-59
2021/06/19 07:27:53;;;;;;;5.33;4.00;;;;;;;;;;5114630;28;20476;-59
2021/06/19 07:30:21;;;;;;;6.00;4.00;;;;;;;;;;5114131;28;20435;-58
2021/06/19 07:32:48;;;;;;;4.57;4.17;;;;;;;;;;5113930;28;20522;-59
2021/06/19 07:35:17;;;;;;;7.70;4.47;;;;;;;;;;5114072;28;20439;-59
2021/06/19 07:37:44;;;;;;;5.07;4.23;;;;;;;;;;5113462;28;20996;-59
2021/06/19 07:40:12;;;;;;;5.93;4.07;;;;;;;;;;5113529;28;20448;-59
2021/06/19 07:42:40;;;;;;;4.77;4.00;;;;;;;;;;5113597;28;20472;-59
2021/06/19 07:45:08;;;;;;;5.33;4.83;;;;;;;;;;5113794;28;20517;-59
2021/06/19 07:47:36;;;;;;;5.33;4.80;;;;;;;;;;5113167;28;20523;-59
2021/06/19 07:50:03;;;;;;;4.90;4.20;;;;;;;;;;5113551;28;20509;-58
2021/06/19 07:52:32;;;;;;;6.10;4.97;;;;;;;;;;5113894;28;20469;-59
2021/06/19 07:55:00;;;;;;;5.80;4.47;;;;;;;;;;5113822;28;20442;-59
2021/06/19 07:57:29;;;;;;;9.47;5.43;;;;;;;;;;5113805;28;20462;-59
2021/06/19 07:59:56;;;;;;;6.30;4.63;;;;;;;;;;5113843;28;20502;-59
2021/06/19 08:02:23;;;;;;;8.13;5.10;;;;;;;;;;5113785;28;20588;-59
2021/06/19 08:04:51;;;;;;;8.97;5.10;;;;;;;;;;5113611;28;20495;-59
2021/06/19 08:07:18;;;;;;;8.40;4.80;;;;;;;;;;5113038;28;20452;-59
2021/06/19 08:09:47;;;;;;;5.37;4.30;;;;;;;;;;5113587;28;20493;-59
2021/06/19 08:12:14;;;;;;;6.03;5.20;;;;;;;;;;5113611;28;20449;-59
2021/06/19 08:14:41;;;;;;;5.80;5.30;;;;;;;;;;5113663;28;20498;-58
2021/06/19 08:17:15;;;;;;;6.07;4.83;;;;;;;;;;5113414;28;20449;-59
2021/06/19 08:19:43;;;;;;;4.77;4.33;;;;;;;;;;5113658;28;20434;-59
2021/06/19 08:22:10;;;;;;;6.13;5.00;;;;;;;;;;5113877;28;20983;-60
2021/06/19 08:24:37;;;;;;;7.33;6.20;;;;;;;;;;5113258;28;20448;-57
2021/06/19 08:27:07;;;;;;;6.20;5.27;;;;;;;;;;5113637;28;20507;-60
2021/06/19 08:29:34;;;;;;;6.60;4.80;;;;;;;;;;5114973;28;20477;-59
2021/06/19 08:32:02;;;;;;;5.33;4.67;;;;;;;;;;5114523;28;20486;-59
2021/06/19 08:34:29;;;;;;;6.67;4.50;;;;;;;;;;5114782;28;20433;-60
2021/06/19 08:36:56;;;;;;;4.90;4.30;;;;;;;;;;5114096;28;20439;-60
2021/06/19 08:39:23;;;;;;;4.70;4.00;;;;;;;;;;5113718;28;20439;-59
2021/06/19 08:41:51;;;;;;;4.50;3.83;;;;;;;;;;5113797;28;20436;-59
2021/06/19 08:44:24;;;;;;;5.10;4.33;;;;;;;;;;5113643;28;20471;-59
2021/06/19 08:46:51;;;;;;;4.43;4.03;;;;;;;;;;5113370;28;20498;-59
2021/06/19 08:49:19;;;;;;;4.97;4.30;;;;;;;;;;5113006;28;20550;-60
2021/06/19 08:51:46;;;;;;;7.07;4.03;;;;;;;;;;5113110;28;20444;-60
2021/06/19 08:54:13;;;;;;;6.40;4.20;;;;;;;;;;5115446;28;20809;-59
2021/06/19 08:56:41;;;;;;;4.67;4.13;;;;;;;;;;5116932;28;20447;-59
2021/06/19 08:59:08;;;;;;;5.63;3.87;;;;;;;;;;5116932;28;20444;-59
2021/06/19 09:01:38;;;;;;;5.33;3.93;;;;;;;;;;5116924;28;20508;-59
2021/06/19 09:04:05;;;;;;;3.60;3.30;;;;;;;;;;5116757;28;20882;-59
2021/06/19 09:06:34;;;;;;;3.70;3.40;;;;;;;;;;5116244;28;20463;-59
2021/06/19 09:09:02;;;;;;;8.83;3.53;;;;;;;;;;5117115;28;20567;-59
2021/06/19 09:11:30;;;;;;;6.03;3.50;;;;;;;;;;5116714;28;20439;-59
2021/06/19 09:13:59;;;;;;;3.37;3.07;;;;;;;;;;5116745;28;20468;-58
2021/06/19 09:16:27;;;;;;;3.87;2.90;;;;;;;;;;5116761;28;20477;-59
2021/06/19 09:18:55;;;;;;;3.03;2.77;;;;;;;;;;5116300;28;20464;-59
2021/06/19 09:21:28;;;;;;;3.60;2.43;;;;;;;;;;5116533;28;20447;-59
2021/06/19 09:23:55;;;;;;;4.10;2.93;;;;;;;;;;5116483;28;20462;-59
2021/06/19 09:26:23;;;;;;;8.70;2.90;;;;;;;;;;5116534;28;20500;-59
2021/06/19 09:28:57;;;;;;;3.70;3.40;;;;;;;;;;5116530;28;20473;-59
2021/06/19 09:31:31;;;;;;;2.80;2.50;;;;;;;;;;5116603;28;20451;-58
2021/06/19 09:34:04;;;;;;;3.40;2.47;;;;;;;;;;5116469;28;20479;-59
2021/06/19 09:36:38;;;;;;;4.97;2.67;;;;;;;;;;5116129;28;20444;-59
2021/06/19 09:39:06;;;;;;;5.00;3.00;;;;;;;;;;5116444;28;20492;-59
2021/06/19 09:41:37;;;;;;;4.40;2.67;;;;;;;;;;5116406;28;20443;-59
2021/06/19 09:44:04;;;;;;;3.20;2.90;;;;;;;;;;5116234;28;20515;-59
2021/06/19 09:46:32;;;;;;;3.40;2.63;;;;;;;;;;5116188;28;20444;-59
2021/06/19 09:49:11;;;;;;;3.50;2.30;;;;;;;;;;5116031;28;20568;-59
2021/06/19 09:51:45;;;;;;;6.53;2.50;;;;;;;;;;5116817;28;20810;-59
2021/06/19 09:54:12;;;;;;;3.70;2.60;;;;;;;;;;5115952;28;20471;-57
2021/06/19 09:56:47;;;;;;;4.93;2.57;;;;;;;;;;5115977;28;20874;-59
2021/06/19 09:59:36;;;;;;;2.97;2.37;;;;;;;;;;5115812;28;20442;-59
2021/06/19 10:02:05;;;;;;;3.00;2.70;;;;;;;;;;5108242;28;20512;-60
2021/06/19 10:04:33;;;;;;;2.93;2.40;;;;;;;;;;5115525;28;20946;-59
2021/06/19 10:07:01;;;;;;;3.40;2.80;;;;;;;;;;5115320;28;20946;-57
2021/06/19 10:09:28;;;;;;;7.40;2.90;;;;;;;;;;5115601;28;20474;-59
2021/06/19 10:11:56;;;;;;;2.90;2.27;;;;;;;;;;5115416;28;20498;-59
2021/06/19 10:14:24;;;;;;;3.20;2.83;;;;;;;;;;5115602;28;20531;-60
2021/06/19 10:16:52;;;;;;;2.50;2.30;;;;;;;;;;5115417;28;20508;-59
2021/06/19 10:19:21;;;;;;;2.93;2.33;;;;;;;;;;5115448;28;20440;-59
2021/06/19 10:21:51;;;;;;;3.40;2.70;;;;;;;;;;5115384;28;20968;-60
2021/06/19 10:24:19;;;;;;;3.93;2.67;;;;;;;;;;5116073;28;20483;-58
2021/06/19 10:26:47;;;;;;;3.43;2.37;;;;;;;;;;5115147;28;20448;-59
2021/06/19 10:29:14;;;;;;;4.40;2.40;;;;;;;;;;5115049;28;20627;-59
2021/06/19 10:31:43;;;;;;;2.40;2.20;;;;;;;;;;5115309;28;20863;-58
2021/06/19 10:34:19;;;;;;;3.10;2.43;;;;;;;;;;5114886;28;20539;-58
2021/06/19 10:36:46;;;;;;;3.20;1.97;;;;;;;;;;5115339;28;20420;-58
2021/06/19 10:39:30;;;;;;;2.93;2.20;;;;;;;;;;5115463;28;20442;-59
2021/06/19 10:41:58;;;;;;;2.33;2.10;;;;;;;;;;5115951;28;20437;-58
2021/06/19 10:44:46;;;;;;;3.93;2.10;;;;;;;;;;5116023;28;20463;-58
2021/06/19 10:47:13;;;;;;;2.43;2.00;;;;;;;;;;5107008;28;20443;-60
2021/06/19 10:49:42;;;;;;;3.60;2.53;;;;;;;;;;5114983;28;21006;-59
2021/06/19 10:52:23;;;;;;;3.40;2.33;;;;;;;;;;5114823;28;20494;-57
2021/06/19 10:55:05;;;;;;;3.60;2.73;;;;;;;;;;5114655;28;20535;-59
2021/06/19 10:57:46;;;;;;;3.10;2.40;;;;;;;;;;5115462;28;20446;-59
2021/06/19 11:00:31;;;;;;;3.00;2.70;;;;;;;;;;5114800;28;20443;-59
2021/06/19 11:02:59;;;;;;;2.80;2.13;;;;;;;;;;5114572;28;20751;-59
2021/06/19 11:05:45;;;;;;;2.07;1.90;;;;;;;;;;5115054;28;20470;-58
2021/06/19 11:08:12;;;;;;;1.83;1.73;;;;;;;;;;5114272;28;20459;-59
2021/06/19 11:11:00;;;;;;;3.00;1.93;;;;;;;;;;5114212;28;20492;-60
2021/06/19 11:13:48;;;;;;;3.90;2.13;;;;;;;;;;5106251;28;20475;-59
2021/06/19 11:16:47;;;;;;;4.27;2.13;;;;;;;;;;5115044;28;20835;-59
2021/06/19 11:19:34;;;;;;;4.27;1.97;;;;;;;;;;5115388;28;20545;-59
2021/06/19 11:22:19;;;;;;;2.90;1.87;;;;;;;;;;5115862;28;20443;-60
2021/06/19 11:25:01;;;;;;;2.50;1.43;;;;;;;;;;5115132;28;20445;-60
2021/06/19 11:27:43;;;;;;;1.70;1.50;;;;;;;;;;5115096;28;20818;-57
2021/06/19 11:30:32;;;;;;;3.07;1.47;;;;;;;;;;5114257;28;20478;-59
2021/06/19 11:33:14;;;;;;;3.10;1.70;;;;;;;;;;5115250;28;20894;-59
2021/06/19 11:35:41;;;;;;;1.23;1.13;;;;;;;;;;5113392;28;20438;-60
2021/06/19 11:38:09;;;;;;;1.47;1.37;;;;;;;;;;5115407;28;20442;-60
2021/06/19 11:40:37;;;;;;;3.63;1.43;;;;;;;;;;5114634;28;20443;-59
2021/06/19 11:43:05;;;;;;;1.67;1.57;;;;;;;;;;5114321;28;20463;-59
2021/06/19 11:45:34;;;;;;;2.23;1.50;;;;;;;;;;5114335;28;20469;-60
2021/06/19 11:48:01;;;;;;;1.90;1.30;;;;;;;;;;5114608;28;20501;-57
2021/06/19 11:50:29;;;;;;;1.80;1.10;;;;;;;;;;5114112;28;21060;-59
2021/06/19 11:52:56;;;;;;;1.50;1.20;;;;;;;;;;5113602;28;20467;-58
2021/06/19 11:55:24;;;;;;;1.20;1.10;;;;;;;;;;5113755;28;20543;-59
2021/06/19 11:57:57;;;;;;;1.50;1.07;;;;;;;;;;5113673;28;20443;-59
2021/06/19 12:00:25;;;;;;;1.40;1.23;;;;;;;;;;5113544;28;20833;-59
2021/06/19 12:02:54;;;;;;;1.40;1.20;;;;;;;;;;5113528;28;20497;-60
2021/06/19 12:05:21;;;;;;;1.30;1.10;;;;;;;;;;5114471;28;20447;-59
2021/06/19 12:07:52;;;;;;;2.43;1.43;;;;;;;;;;5113388;28;20454;-58
2021/06/19 12:10:37;;;;;;;1.23;1.00;;;;;;;;;;5113929;28;20525;-58
2021/06/19 12:13:07;;;;;;;1.20;1.10;;;;;;;;;;5113430;28;20975;-58
2021/06/19 12:15:35;;;;;;;1.97;1.20;;;;;;;;;;5113471;28;20443;-59
2021/06/19 12:18:05;;;;;;;5.93;1.20;;;;;;;;;;5113513;28;20497;-59
2021/06/19 12:20:32;;;;;;;2.50;1.20;;;;;;;;;;5113544;28;20784;-59
2021/06/19 12:23:00;;;;;;;1.23;1.13;;;;;;;;;;5113414;28;20520;-60
2021/06/19 12:25:31;;;;;;;3.97;1.33;;;;;;;;;;5112944;28;20494;-58
2021/06/19 12:27:58;;;;;;;4.27;1.20;;;;;;;;;;5113515;28;20497;-59
2021/06/19 12:30:26;;;;;;;2.13;1.10;;;;;;;;;;5117170;28;20524;-58
2021/06/19 12:32:53;;;;;;;4.60;1.10;;;;;;;;;;5117757;28;20460;-58
2021/06/19 12:35:23;;;;;;;1.30;1.20;;;;;;;;;;5117251;28;20449;-58
2021/06/19 12:37:51;;;;;;;1.20;0.87;;;;;;;;;;5117407;28;20480;-58
2021/06/19 12:40:18;;;;;;;1.30;0.97;;;;;;;;;;5117762;28;20437;-58
2021/06/19 12:42:47;;;;;;;1.40;1.00;;;;;;;;;;5117750;28;20472;-60
2021/06/19 12:45:16;;;;;;;5.43;1.53;;;;;;;;;;5117204;28;20544;-60
2021/06/19 12:47:45;;;;;;;3.00;1.27;;;;;;;;;;5116952;28;20936;-59
2021/06/19 12:50:13;;;;;;;1.60;1.27;;;;;;;;;;5117394;28;20809;-59
2021/06/19 12:52:58;;;;;;;3.90;1.23;;;;;;;;;;5117487;28;20461;-60
2021/06/19 12:55:26;;;;;;;2.80;1.20;;;;;;;;;;5117216;28;20441;-60
2021/06/19 12:58:10;;;;;;;4.40;1.47;;;;;;;;;;5117531;28;20800;-59
2021/06/19 13:00:42;;;;;;;1.30;1.10;;;;;;;;;;5116925;28;20440;-59
2021/06/19 13:03:09;;;;;;;2.77;1.37;;;;;;;;;;5116811;28;20469;-60
2021/06/19 13:05:47;;;;;;;1.67;1.33;;;;;;;;;;5116868;28;20459;-60
2021/06/19 13:08:17;;;;;;;1.77;1.53;;;;;;;;;;5116779;28;20433;-59
2021/06/19 13:10:44;;;;;;;1.63;1.37;;;;;;;;;;5116843;28;20484;-60
2021/06/19 13:13:12;;;;;;;1.40;1.20;;;;;;;;;;5116843;28;20461;-59
2021/06/19 13:15:56;;;;;;;1.47;1.20;;;;;;;;;;5116855;28;20443;-60
2021/06/19 13:18:23;;;;;;;1.53;1.40;;;;;;;;;;5117730;28;20428;-59
2021/06/19 13:20:58;;;;;;;1.50;1.27;;;;;;;;;;5117254;28;20838;-60
2021/06/19 13:23:27;;;;;;;1.60;1.50;;;;;;;;;;5116528;28;20470;-60
2021/06/19 13:25:56;;;;;;;2.87;1.80;;;;;;;;;;5116674;28;20451;-59
2021/06/19 13:28:50;;;;;;;2.53;2.33;;;;;;;;;;5117010;28;20448;-59
2021/06/19 13:31:19;;;;;;;2.03;1.60;;;;;;;;;;5057951;28;20437;-59
2021/06/19 13:33:48;;;;;;;1.30;1.20;;;;;;;;;;5116564;28;20468;-60
2021/06/19 13:36:16;;;;;;;1.77;1.67;;;;;;;;;;5116913;28;20451;-59
2021/06/19 13:38:55;;;;;;;1.93;1.40;;;;;;;;;;5116128;28;20498;-59
2021/06/19 13:41:26;;;;;;;1.40;1.30;;;;;;;;;;5116451;28;20442;-60
2021/06/19 13:43:53;;;;;;;1.37;1.20;;;;;;;;;;5116167;28;20456;-60
2021/06/19 13:46:20;;;;;;;1.90;1.67;;;;;;;;;;5116433;28;20473;-60
2021/06/19 13:48:48;;;;;;;1.80;1.60;;;;;;;;;;5115683;28;20500;-59
2021/06/19 13:51:15;;;;;;;1.37;1.27;;;;;;;;;;5115959;28;20501;-59
2021/06/19 13:53:43;;;;;;;1.97;1.53;;;;;;;;;;5116620;28;20471;-60
2021/06/19 13:56:12;;;;;;;1.53;1.30;;;;;;;;;;5115619;28;20491;-59
2021/06/19 13:58:39;;;;;;;1.80;1.27;;;;;;;;;;5115796;28;20933;-59
2021/06/19 14:01:06;;;;;;;1.87;1.30;;;;;;;;;;5115927;28;20506;-58
2021/06/19 14:03:34;;;;;;;1.50;1.23;;;;;;;;;;5115743;28;20460;-60
2021/06/19 14:06:03;;;;;;;2.53;1.50;;;;;;;;;;5115565;28;20437;-59
2021/06/19 14:08:30;;;;;;;1.60;1.50;;;;;;;;;;5115535;28;20797;-59
2021/06/19 14:10:57;;;;;;;3.00;2.70;;;;;;;;;;5115468;28;20481;-60
2021/06/19 14:13:26;;;;;;;1.70;1.47;;;;;;;;;;5115610;28;20472;-59
2021/06/19 14:15:53;;;;;;;2.50;1.63;;;;;;;;;;5115359;28;20545;-60
2021/06/19 14:18:20;;;;;;;2.13;1.77;;;;;;;;;;5117239;28;20515;-59
2021/06/19 14:20:47;;;;;;;1.77;1.50;;;;;;;;;;5115521;28;20811;-59
2021/06/19 14:23:15;;;;;;;1.67;1.40;;;;;;;;;;5115504;28;20471;-59
2021/06/19 14:25:42;;;;;;;1.50;1.20;;;;;;;;;;5115438;28;20447;-59
2021/06/19 14:28:09;;;;;;;1.93;1.50;;;;;;;;;;5115532;28;20495;-58
2021/06/19 14:30:38;;;;;;;1.60;1.40;;;;;;;;;;5114654;28;20986;-59
2021/06/19 14:33:05;;;;;;;2.00;1.70;;;;;;;;;;5115235;28;20529;-60
2021/06/19 14:35:32;;;;;;;2.30;1.73;;;;;;;;;;5115367;28;20443;-60
2021/06/19 14:37:59;;;;;;;1.93;1.60;;;;;;;;;;5115237;28;20456;-59
2021/06/19 14:40:27;;;;;;;1.73;1.63;;;;;;;;;;5115087;28;20498;-59
2021/06/19 14:42:55;;;;;;;1.67;1.30;;;;;;;;;;5115115;28;20469;-59
2021/06/19 14:45:22;;;;;;;1.80;1.57;;;;;;;;;;5115150;28;20507;-58